sensor_id;sensor_type;location;lat;lon;timestamp;P1;durP1;ratioP1;P2;durP2;ratioP2
51499;SDS011;39101;53.478;6.158;2022-12-29T00:02:14;10.70;;;6.83;;
51499;SDS011;39101;53.478;6.158;2022-12-29T00:04:40;11.90;;;7.40;;
51499;SDS011;39101;53.478;6.158;2022-12-29T00:07:06;10.97;;;6.30;;
51499;SDS011;39101;53.478;6.158;2022-12-29T00:09:33;8.73;;;6.37;;
51499;SDS011;39101;53.478;6.158;2022-12-29T00:12:00;9.63;;;7.23;;
51499;SDS011;39101;53.478;6.158;2022-12-29T00:14:27;8.67;;;6.87;;
51499;SDS011;39101;53.478;6.158;2022-12-29T00:17:11;10.93;;;5.40;;
51499;SDS011;39101;53.478;6.158;2022-12-29T00:19:37;9.60;;;5.80;;
51499;SDS011;39101;53.478;6.158;2022-12-29T00:22:22;7.23;;;5.63;;
51499;SDS011;39101;53.478;6.158;2022-12-29T00:25:08;8.13;;;5.40;;
51499;SDS011;39101;53.478;6.158;2022-12-29T00:27:56;8.53;;;5.93;;
51499;SDS011;39101;53.478;6.158;2022-12-29T00:30:40;10.93;;;5.97;;
51499;SDS011;39101;53.478;6.158;2022-12-29T00:33:26;9.53;;;6.10;;
51499;SDS011;39101;53.478;6.158;2022-12-29T00:38:47;9.40;;;5.67;;
51499;SDS011;39101;53.478;6.158;2022-12-29T00:41:35;7.97;;;5.90;;
51499;SDS011;39101;53.478;6.158;2022-12-29T00:44:19;7.83;;;5.07;;
51499;SDS011;39101;53.478;6.158;2022-12-29T00:46:45;9.93;;;6.47;;
51499;SDS011;39101;53.478;6.158;2022-12-29T00:49:12;8.77;;;6.80;;
51499;SDS011;39101;53.478;6.158;2022-12-29T00:51:58;8.20;;;5.80;;
51499;SDS011;39101;53.478;6.158;2022-12-29T00:54:34;8.97;;;5.93;;
51499;SDS011;39101;53.478;6.158;2022-12-29T00:57:01;9.57;;;7.27;;
51499;SDS011;39101;53.478;6.158;2022-12-29T00:59:28;10.47;;;6.27;;
51499;SDS011;39101;53.478;6.158;2022-12-29T01:01:54;11.63;;;6.10;;
51499;SDS011;39101;53.478;6.158;2022-12-29T01:04:21;8.90;;;6.10;;
51499;SDS011;39101;53.478;6.158;2022-12-29T01:06:48;8.70;;;6.57;;
51499;SDS011;39101;53.478;6.158;2022-12-29T01:09:14;11.93;;;7.17;;
51499;SDS011;39101;53.478;6.158;2022-12-29T01:11:59;14.43;;;7.07;;
51499;SDS011;39101;53.478;6.158;2022-12-29T01:14:25;9.37;;;7.67;;
51499;SDS011;39101;53.478;6.158;2022-12-29T01:16:51;9.50;;;7.50;;
51499;SDS011;39101;53.478;6.158;2022-12-29T01:19:17;10.10;;;7.10;;
51499;SDS011;39101;53.478;6.158;2022-12-29T01:21:45;10.57;;;6.97;;
51499;SDS011;39101;53.478;6.158;2022-12-29T01:24:11;10.27;;;6.83;;
51499;SDS011;39101;53.478;6.158;2022-12-29T01:26:37;11.90;;;7.57;;
51499;SDS011;39101;53.478;6.158;2022-12-29T01:29:02;10.33;;;7.70;;
51499;SDS011;39101;53.478;6.158;2022-12-29T01:31:28;10.00;;;8.13;;
51499;SDS011;39101;53.478;6.158;2022-12-29T01:33:54;9.40;;;7.53;;
51499;SDS011;39101;53.478;6.158;2022-12-29T01:36:19;12.13;;;8.17;;
51499;SDS011;39101;53.478;6.158;2022-12-29T01:38:45;9.43;;;7.23;;
51499;SDS011;39101;53.478;6.158;2022-12-29T01:41:11;10.53;;;8.40;;
51499;SDS011;39101;53.478;6.158;2022-12-29T01:46:52;11.40;;;7.90;;
51499;SDS011;39101;53.478;6.158;2022-12-29T01:49:10;9.83;;;6.93;;
51499;SDS011;39101;53.478;6.158;2022-12-29T01:54:16;9.57;;;6.57;;
51499;SDS011;39101;53.478;6.158;2022-12-29T01:56:50;11.27;;;8.47;;
51499;SDS011;39101;53.478;6.158;2022-12-29T01:59:18;8.37;;;6.93;;
51499;SDS011;39101;53.478;6.158;2022-12-29T02:01:51;9.90;;;7.43;;
51499;SDS011;39101;53.478;6.158;2022-12-29T02:04:16;10.83;;;6.70;;
51499;SDS011;39101;53.478;6.158;2022-12-29T02:06:53;10.07;;;6.37;;
51499;SDS011;39101;53.478;6.158;2022-12-29T02:09:32;9.50;;;5.80;;
51499;SDS011;39101;53.478;6.158;2022-12-29T02:11:58;8.53;;;5.60;;
51499;SDS011;39101;53.478;6.158;2022-12-29T02:14:25;12.77;;;5.90;;
51499;SDS011;39101;53.478;6.158;2022-12-29T02:20:29;7.67;;;5.03;;
51499;SDS011;39101;53.478;6.158;2022-12-29T02:26:01;11.83;;;7.00;;
51499;SDS011;39101;53.478;6.158;2022-12-29T02:31:41;10.20;;;6.73;;
51499;SDS011;39101;53.478;6.158;2022-12-29T02:42:51;7.80;;;4.93;;
51499;SDS011;39101;53.478;6.158;2022-12-29T02:48:37;8.43;;;4.10;;
51499;SDS011;39101;53.478;6.158;2022-12-29T02:51:23;5.23;;;3.43;;
51499;SDS011;39101;53.478;6.158;2022-12-29T02:54:20;10.60;;;3.07;;
51499;SDS011;39101;53.478;6.158;2022-12-29T02:57:08;11.37;;;2.87;;
51499;SDS011;39101;53.478;6.158;2022-12-29T02:59:41;5.63;;;2.10;;
51499;SDS011;39101;53.478;6.158;2022-12-29T03:16:43;4.55;;;1.33;;
51499;SDS011;39101;53.478;6.158;2022-12-29T03:19:24;10.32;;;2.58;;
51499;SDS011;39101;53.478;6.158;2022-12-29T03:21:56;7.63;;;2.07;;
51499;SDS011;39101;53.478;6.158;2022-12-29T03:24:50;4.57;;;1.73;;
51499;SDS011;39101;53.478;6.158;2022-12-29T03:27:31;6.90;;;2.10;;
51499;SDS011;39101;53.478;6.158;2022-12-29T03:30:03;5.63;;;1.70;;
51499;SDS011;39101;53.478;6.158;2022-12-29T03:32:32;4.80;;;1.80;;
51499;SDS011;39101;53.478;6.158;2022-12-29T03:35:05;3.10;;;1.43;;
51499;SDS011;39101;53.478;6.158;2022-12-29T03:37:35;5.97;;;1.90;;
51499;SDS011;39101;53.478;6.158;2022-12-29T03:42:30;7.93;;;2.37;;
51499;SDS011;39101;53.478;6.158;2022-12-29T03:44:59;6.47;;;2.47;;
51499;SDS011;39101;53.478;6.158;2022-12-29T03:47:25;13.63;;;2.67;;
51499;SDS011;39101;53.478;6.158;2022-12-29T03:49:51;11.27;;;3.10;;
51499;SDS011;39101;53.478;6.158;2022-12-29T03:52:17;8.30;;;2.13;;
51499;SDS011;39101;53.478;6.158;2022-12-29T03:54:43;11.83;;;2.83;;
51499;SDS011;39101;53.478;6.158;2022-12-29T03:57:10;10.93;;;2.80;;
51499;SDS011;39101;53.478;6.158;2022-12-29T03:59:36;14.43;;;2.83;;
51499;SDS011;39101;53.478;6.158;2022-12-29T04:02:02;14.23;;;3.87;;
51499;SDS011;39101;53.478;6.158;2022-12-29T04:04:27;12.13;;;2.90;;
51499;SDS011;39101;53.478;6.158;2022-12-29T04:06:53;14.97;;;3.10;;
51499;SDS011;39101;53.478;6.158;2022-12-29T04:09:18;8.27;;;2.53;;
51499;SDS011;39101;53.478;6.158;2022-12-29T04:11:44;12.67;;;2.80;;
51499;SDS011;39101;53.478;6.158;2022-12-29T04:14:10;12.27;;;2.70;;
51499;SDS011;39101;53.478;6.158;2022-12-29T04:16:35;10.30;;;2.50;;
51499;SDS011;39101;53.478;6.158;2022-12-29T04:19:03;16.20;;;2.97;;
51499;SDS011;39101;53.478;6.158;2022-12-29T04:21:32;17.63;;;3.43;;
51499;SDS011;39101;53.478;6.158;2022-12-29T04:23:58;10.37;;;2.23;;
51499;SDS011;39101;53.478;6.158;2022-12-29T04:26:24;13.87;;;2.47;;
51499;SDS011;39101;53.478;6.158;2022-12-29T04:28:50;15.63;;;2.47;;
51499;SDS011;39101;53.478;6.158;2022-12-29T04:31:16;8.20;;;2.87;;
51499;SDS011;39101;53.478;6.158;2022-12-29T04:33:42;11.83;;;2.47;;
51499;SDS011;39101;53.478;6.158;2022-12-29T04:36:07;12.37;;;2.20;;
51499;SDS011;39101;53.478;6.158;2022-12-29T04:38:33;12.83;;;2.10;;
51499;SDS011;39101;53.478;6.158;2022-12-29T04:41:00;12.87;;;2.50;;
51499;SDS011;39101;53.478;6.158;2022-12-29T04:43:26;16.63;;;3.37;;
51499;SDS011;39101;53.478;6.158;2022-12-29T04:45:53;10.87;;;2.10;;
51499;SDS011;39101;53.478;6.158;2022-12-29T04:48:18;10.43;;;2.90;;
51499;SDS011;39101;53.478;6.158;2022-12-29T04:50:46;12.07;;;2.23;;
51499;SDS011;39101;53.478;6.158;2022-12-29T04:53:13;17.37;;;4.10;;
51499;SDS011;39101;53.478;6.158;2022-12-29T04:55:39;10.30;;;3.40;;
51499;SDS011;39101;53.478;6.158;2022-12-29T04:58:04;14.67;;;2.43;;
51499;SDS011;39101;53.478;6.158;2022-12-29T05:00:30;17.57;;;3.10;;
51499;SDS011;39101;53.478;6.158;2022-12-29T05:02:56;20.67;;;2.93;;
51499;SDS011;39101;53.478;6.158;2022-12-29T05:05:21;22.43;;;3.90;;
51499;SDS011;39101;53.478;6.158;2022-12-29T05:07:47;17.73;;;4.13;;
51499;SDS011;39101;53.478;6.158;2022-12-29T05:10:13;20.57;;;3.80;;
51499;SDS011;39101;53.478;6.158;2022-12-29T05:12:38;21.07;;;3.70;;
51499;SDS011;39101;53.478;6.158;2022-12-29T05:15:05;37.43;;;5.53;;
51499;SDS011;39101;53.478;6.158;2022-12-29T05:17:32;25.73;;;5.07;;
51499;SDS011;39101;53.478;6.158;2022-12-29T05:19:58;21.60;;;3.53;;
51499;SDS011;39101;53.478;6.158;2022-12-29T05:22:24;17.43;;;3.30;;
51499;SDS011;39101;53.478;6.158;2022-12-29T05:24:50;27.53;;;3.77;;
51499;SDS011;39101;53.478;6.158;2022-12-29T05:27:16;25.70;;;6.13;;
51499;SDS011;39101;53.478;6.158;2022-12-29T05:29:42;25.30;;;3.83;;
51499;SDS011;39101;53.478;6.158;2022-12-29T05:32:07;21.60;;;3.70;;
51499;SDS011;39101;53.478;6.158;2022-12-29T05:34:33;22.70;;;4.23;;
51499;SDS011;39101;53.478;6.158;2022-12-29T05:36:59;22.93;;;4.87;;
51499;SDS011;39101;53.478;6.158;2022-12-29T05:39:24;29.67;;;5.40;;
51499;SDS011;39101;53.478;6.158;2022-12-29T05:41:50;23.30;;;5.10;;
51499;SDS011;39101;53.478;6.158;2022-12-29T05:44:16;25.30;;;4.90;;
51499;SDS011;39101;53.478;6.158;2022-12-29T05:46:41;21.03;;;4.53;;
51499;SDS011;39101;53.478;6.158;2022-12-29T05:49:07;26.10;;;4.40;;
51499;SDS011;39101;53.478;6.158;2022-12-29T05:51:33;26.20;;;5.10;;
51499;SDS011;39101;53.478;6.158;2022-12-29T05:53:58;27.07;;;5.07;;
51499;SDS011;39101;53.478;6.158;2022-12-29T05:56:24;25.67;;;4.40;;
51499;SDS011;39101;53.478;6.158;2022-12-29T05:58:50;23.00;;;4.83;;
51499;SDS011;39101;53.478;6.158;2022-12-29T06:01:15;26.47;;;5.30;;
51499;SDS011;39101;53.478;6.158;2022-12-29T06:03:41;29.20;;;5.40;;
51499;SDS011;39101;53.478;6.158;2022-12-29T06:06:07;28.20;;;4.13;;
51499;SDS011;39101;53.478;6.158;2022-12-29T06:08:33;27.73;;;4.97;;
51499;SDS011;39101;53.478;6.158;2022-12-29T06:10:59;26.77;;;4.10;;
51499;SDS011;39101;53.478;6.158;2022-12-29T06:13:24;23.97;;;4.90;;
51499;SDS011;39101;53.478;6.158;2022-12-29T06:15:50;25.83;;;3.77;;
51499;SDS011;39101;53.478;6.158;2022-12-29T06:18:16;22.37;;;4.77;;
51499;SDS011;39101;53.478;6.158;2022-12-29T06:20:42;24.63;;;3.93;;
51499;SDS011;39101;53.478;6.158;2022-12-29T06:23:08;24.93;;;4.50;;
51499;SDS011;39101;53.478;6.158;2022-12-29T06:25:33;22.43;;;3.77;;
51499;SDS011;39101;53.478;6.158;2022-12-29T06:28:01;26.17;;;5.17;;
51499;SDS011;39101;53.478;6.158;2022-12-29T06:30:27;25.70;;;5.70;;
51499;SDS011;39101;53.478;6.158;2022-12-29T06:32:53;23.70;;;4.13;;
51499;SDS011;39101;53.478;6.158;2022-12-29T06:35:19;17.80;;;3.33;;
51499;SDS011;39101;53.478;6.158;2022-12-29T06:37:47;23.97;;;4.90;;
51499;SDS011;39101;53.478;6.158;2022-12-29T06:40:14;25.87;;;5.67;;
51499;SDS011;39101;53.478;6.158;2022-12-29T06:42:39;24.80;;;4.73;;
51499;SDS011;39101;53.478;6.158;2022-12-29T06:45:05;23.57;;;3.97;;
51499;SDS011;39101;53.478;6.158;2022-12-29T06:47:32;27.00;;;6.03;;
51499;SDS011;39101;53.478;6.158;2022-12-29T06:49:59;16.97;;;3.60;;
51499;SDS011;39101;53.478;6.158;2022-12-29T06:52:25;30.53;;;4.20;;
51499;SDS011;39101;53.478;6.158;2022-12-29T06:54:50;24.63;;;4.07;;
51499;SDS011;39101;53.478;6.158;2022-12-29T06:57:16;24.83;;;5.13;;
51499;SDS011;39101;53.478;6.158;2022-12-29T06:59:42;29.00;;;5.87;;
51499;SDS011;39101;53.478;6.158;2022-12-29T07:02:11;31.13;;;5.10;;
51499;SDS011;39101;53.478;6.158;2022-12-29T07:04:39;36.10;;;5.10;;
51499;SDS011;39101;53.478;6.158;2022-12-29T07:07:05;20.87;;;4.47;;
51499;SDS011;39101;53.478;6.158;2022-12-29T07:09:31;21.17;;;4.63;;
51499;SDS011;39101;53.478;6.158;2022-12-29T07:11:56;33.17;;;5.27;;
51499;SDS011;39101;53.478;6.158;2022-12-29T07:14:22;25.60;;;5.73;;
51499;SDS011;39101;53.478;6.158;2022-12-29T07:16:48;25.60;;;4.17;;
51499;SDS011;39101;53.478;6.158;2022-12-29T07:19:13;32.50;;;5.83;;
51499;SDS011;39101;53.478;6.158;2022-12-29T07:21:39;28.37;;;4.77;;
51499;SDS011;39101;53.478;6.158;2022-12-29T07:24:05;26.03;;;5.77;;
51499;SDS011;39101;53.478;6.158;2022-12-29T07:26:30;24.37;;;4.67;;
51499;SDS011;39101;53.478;6.158;2022-12-29T07:28:56;17.90;;;4.07;;
51499;SDS011;39101;53.478;6.158;2022-12-29T07:31:22;31.83;;;6.23;;
51499;SDS011;39101;53.478;6.158;2022-12-29T07:33:48;26.60;;;4.73;;
51499;SDS011;39101;53.478;6.158;2022-12-29T07:36:14;23.30;;;4.50;;
51499;SDS011;39101;53.478;6.158;2022-12-29T07:38:41;30.33;;;5.53;;
51499;SDS011;39101;53.478;6.158;2022-12-29T07:41:07;27.77;;;4.43;;
51499;SDS011;39101;53.478;6.158;2022-12-29T07:43:33;28.63;;;5.73;;
51499;SDS011;39101;53.478;6.158;2022-12-29T07:45:59;28.00;;;7.77;;
51499;SDS011;39101;53.478;6.158;2022-12-29T07:48:25;22.10;;;4.47;;
51499;SDS011;39101;53.478;6.158;2022-12-29T07:50:51;25.97;;;5.00;;
51499;SDS011;39101;53.478;6.158;2022-12-29T07:53:17;35.20;;;5.67;;
51499;SDS011;39101;53.478;6.158;2022-12-29T07:55:43;27.67;;;5.07;;
51499;SDS011;39101;53.478;6.158;2022-12-29T07:58:09;25.77;;;4.90;;
51499;SDS011;39101;53.478;6.158;2022-12-29T08:00:34;32.53;;;5.20;;
51499;SDS011;39101;53.478;6.158;2022-12-29T08:03:00;32.73;;;5.27;;
51499;SDS011;39101;53.478;6.158;2022-12-29T08:05:26;25.37;;;5.13;;
51499;SDS011;39101;53.478;6.158;2022-12-29T08:07:52;23.93;;;5.63;;
51499;SDS011;39101;53.478;6.158;2022-12-29T08:10:17;22.57;;;4.37;;
51499;SDS011;39101;53.478;6.158;2022-12-29T08:12:43;25.93;;;4.43;;
51499;SDS011;39101;53.478;6.158;2022-12-29T08:15:09;25.57;;;4.40;;
51499;SDS011;39101;53.478;6.158;2022-12-29T08:17:36;26.90;;;4.60;;
51499;SDS011;39101;53.478;6.158;2022-12-29T08:20:02;21.37;;;5.23;;
51499;SDS011;39101;53.478;6.158;2022-12-29T08:22:28;27.27;;;4.57;;
51499;SDS011;39101;53.478;6.158;2022-12-29T08:24:54;28.13;;;5.03;;
51499;SDS011;39101;53.478;6.158;2022-12-29T08:27:20;25.13;;;5.07;;
51499;SDS011;39101;53.478;6.158;2022-12-29T08:29:45;27.63;;;5.23;;
51499;SDS011;39101;53.478;6.158;2022-12-29T08:32:11;23.03;;;4.10;;
51499;SDS011;39101;53.478;6.158;2022-12-29T08:34:37;28.80;;;5.50;;
51499;SDS011;39101;53.478;6.158;2022-12-29T08:37:03;27.10;;;4.00;;
51499;SDS011;39101;53.478;6.158;2022-12-29T08:39:28;33.40;;;5.60;;
51499;SDS011;39101;53.478;6.158;2022-12-29T08:41:54;24.23;;;4.23;;
51499;SDS011;39101;53.478;6.158;2022-12-29T08:44:20;36.60;;;5.33;;
51499;SDS011;39101;53.478;6.158;2022-12-29T08:46:46;27.40;;;5.00;;
51499;SDS011;39101;53.478;6.158;2022-12-29T08:49:12;33.17;;;6.00;;
51499;SDS011;39101;53.478;6.158;2022-12-29T08:51:37;31.27;;;5.13;;
51499;SDS011;39101;53.478;6.158;2022-12-29T08:54:03;25.07;;;5.17;;
51499;SDS011;39101;53.478;6.158;2022-12-29T08:56:29;25.57;;;5.80;;
51499;SDS011;39101;53.478;6.158;2022-12-29T08:58:54;27.83;;;4.90;;
51499;SDS011;39101;53.478;6.158;2022-12-29T09:01:20;27.53;;;4.40;;
51499;SDS011;39101;53.478;6.158;2022-12-29T09:03:47;35.87;;;6.07;;
51499;SDS011;39101;53.478;6.158;2022-12-29T09:06:13;31.30;;;5.77;;
51499;SDS011;39101;53.478;6.158;2022-12-29T09:08:40;36.33;;;7.03;;
51499;SDS011;39101;53.478;6.158;2022-12-29T09:11:24;28.90;;;6.73;;
51499;SDS011;39101;53.478;6.158;2022-12-29T09:13:50;41.97;;;6.30;;
51499;SDS011;39101;53.478;6.158;2022-12-29T09:16:17;45.57;;;6.07;;
51499;SDS011;39101;53.478;6.158;2022-12-29T09:18:45;35.80;;;5.90;;
51499;SDS011;39101;53.478;6.158;2022-12-29T09:21:11;33.23;;;6.73;;
51499;SDS011;39101;53.478;6.158;2022-12-29T09:23:37;41.93;;;7.03;;
51499;SDS011;39101;53.478;6.158;2022-12-29T09:26:03;26.47;;;4.27;;
51499;SDS011;39101;53.478;6.158;2022-12-29T09:28:30;36.03;;;6.47;;
51499;SDS011;39101;53.478;6.158;2022-12-29T09:30:57;44.20;;;6.67;;
51499;SDS011;39101;53.478;6.158;2022-12-29T09:33:22;35.27;;;6.53;;
51499;SDS011;39101;53.478;6.158;2022-12-29T09:35:52;25.40;;;4.93;;
51499;SDS011;39101;53.478;6.158;2022-12-29T09:38:20;41.50;;;7.93;;
51499;SDS011;39101;53.478;6.158;2022-12-29T09:40:53;28.23;;;4.10;;
51499;SDS011;39101;53.478;6.158;2022-12-29T09:43:42;27.17;;;5.13;;
51499;SDS011;39101;53.478;6.158;2022-12-29T09:49:09;28.53;;;4.40;;
51499;SDS011;39101;53.478;6.158;2022-12-29T09:51:38;31.90;;;7.20;;
51499;SDS011;39101;53.478;6.158;2022-12-29T09:54:21;28.47;;;5.80;;
51499;SDS011;39101;53.478;6.158;2022-12-29T09:56:54;37.90;;;6.27;;
51499;SDS011;39101;53.478;6.158;2022-12-29T09:59:21;32.53;;;5.67;;
51499;SDS011;39101;53.478;6.158;2022-12-29T10:01:59;25.20;;;5.27;;
51499;SDS011;39101;53.478;6.158;2022-12-29T10:04:38;36.70;;;6.43;;
51499;SDS011;39101;53.478;6.158;2022-12-29T10:07:10;29.83;;;5.37;;
51499;SDS011;39101;53.478;6.158;2022-12-29T10:13:05;29.03;;;4.20;;
51499;SDS011;39101;53.478;6.158;2022-12-29T10:23:42;25.23;;;4.87;;
51499;SDS011;39101;53.478;6.158;2022-12-29T10:26:20;39.17;;;6.97;;
51499;SDS011;39101;53.478;6.158;2022-12-29T10:28:53;31.93;;;5.90;;
51499;SDS011;39101;53.478;6.158;2022-12-29T10:31:36;27.57;;;5.17;;
51499;SDS011;39101;53.478;6.158;2022-12-29T10:34:15;33.10;;;5.47;;
51499;SDS011;39101;53.478;6.158;2022-12-29T10:37:03;27.23;;;5.83;;
51499;SDS011;39101;53.478;6.158;2022-12-29T10:39:41;25.73;;;5.00;;
51499;SDS011;39101;53.478;6.158;2022-12-29T10:44:58;25.33;;;4.77;;
51499;SDS011;39101;53.478;6.158;2022-12-29T10:47:26;23.17;;;4.57;;
51499;SDS011;39101;53.478;6.158;2022-12-29T10:49:57;18.57;;;3.87;;
51499;SDS011;39101;53.478;6.158;2022-12-29T10:52:25;19.73;;;5.37;;
51499;SDS011;39101;53.478;6.158;2022-12-29T10:57:42;23.70;;;3.70;;
51499;SDS011;39101;53.478;6.158;2022-12-29T11:00:13;23.17;;;5.20;;
51499;SDS011;39101;53.478;6.158;2022-12-29T11:08:30;21.00;;;4.67;;
51499;SDS011;39101;53.478;6.158;2022-12-29T11:11:04;23.30;;;5.17;;
51499;SDS011;39101;53.478;6.158;2022-12-29T11:13:34;26.77;;;4.30;;
51499;SDS011;39101;53.478;6.158;2022-12-29T11:16:11;18.50;;;3.50;;
51499;SDS011;39101;53.478;6.158;2022-12-29T11:18:38;27.70;;;5.73;;
51499;SDS011;39101;53.478;6.158;2022-12-29T11:21:27;28.93;;;5.63;;
51499;SDS011;39101;53.478;6.158;2022-12-29T11:26:24;25.10;;;4.23;;
51499;SDS011;39101;53.478;6.158;2022-12-29T11:36:46;23.77;;;4.70;;
51499;SDS011;39101;53.478;6.158;2022-12-29T11:39:23;26.73;;;4.03;;
51499;SDS011;39101;53.478;6.158;2022-12-29T11:42:02;23.03;;;5.37;;
51499;SDS011;39101;53.478;6.158;2022-12-29T11:44:29;16.60;;;3.67;;
51499;SDS011;39101;53.478;6.158;2022-12-29T11:47:01;19.97;;;4.30;;
51499;SDS011;39101;53.478;6.158;2022-12-29T11:49:27;16.33;;;3.97;;
51499;SDS011;39101;53.478;6.158;2022-12-29T11:51:52;20.00;;;4.50;;
51499;SDS011;39101;53.478;6.158;2022-12-29T11:54:22;26.80;;;5.00;;
51499;SDS011;39101;53.478;6.158;2022-12-29T11:56:52;20.13;;;3.33;;
51499;SDS011;39101;53.478;6.158;2022-12-29T12:02:11;15.30;;;3.23;;
51499;SDS011;39101;53.478;6.158;2022-12-29T12:04:42;23.93;;;3.60;;
51499;SDS011;39101;53.478;6.158;2022-12-29T12:07:18;17.73;;;3.17;;
51499;SDS011;39101;53.478;6.158;2022-12-29T12:09:50;20.30;;;3.40;;
51499;SDS011;39101;53.478;6.158;2022-12-29T12:12:30;14.60;;;3.20;;
51499;SDS011;39101;53.478;6.158;2022-12-29T12:15:05;10.37;;;2.40;;
51499;SDS011;39101;53.478;6.158;2022-12-29T12:17:54;12.53;;;2.80;;
51499;SDS011;39101;53.478;6.158;2022-12-29T12:20:41;19.80;;;4.13;;
51499;SDS011;39101;53.478;6.158;2022-12-29T12:23:19;15.27;;;4.10;;
51499;SDS011;39101;53.478;6.158;2022-12-29T12:25:57;16.47;;;3.20;;
51499;SDS011;39101;53.478;6.158;2022-12-29T12:28:33;17.57;;;2.50;;
51499;SDS011;39101;53.478;6.158;2022-12-29T12:33:53;15.90;;;3.10;;
51499;SDS011;39101;53.478;6.158;2022-12-29T12:36:35;17.60;;;3.03;;
51499;SDS011;39101;53.478;6.158;2022-12-29T12:45:40;19.83;;;2.40;;
51499;SDS011;39101;53.478;6.158;2022-12-29T12:48:17;15.50;;;2.90;;
51499;SDS011;39101;53.478;6.158;2022-12-29T13:00:02;14.37;;;3.90;;
51499;SDS011;39101;53.478;6.158;2022-12-29T13:22:56;23.80;;;2.50;;
51499;SDS011;39101;53.478;6.158;2022-12-29T13:28:10;14.27;;;2.63;;
51499;SDS011;39101;53.478;6.158;2022-12-29T13:38:47;13.53;;;2.80;;
51499;SDS011;39101;53.478;6.158;2022-12-29T13:44:28;14.83;;;3.23;;
51499;SDS011;39101;53.478;6.158;2022-12-29T13:46:55;15.83;;;2.17;;
51499;SDS011;39101;53.478;6.158;2022-12-29T13:49:25;13.65;;;2.45;;
51499;SDS011;39101;53.478;6.158;2022-12-29T13:51:55;15.13;;;2.67;;
51499;SDS011;39101;53.478;6.158;2022-12-29T13:57:23;14.50;;;3.20;;
51499;SDS011;39101;53.478;6.158;2022-12-29T14:00:16;13.70;;;2.60;;
51499;SDS011;39101;53.478;6.158;2022-12-29T14:07:46;14.33;;;2.90;;
51499;SDS011;39101;53.478;6.158;2022-12-29T14:10:35;19.33;;;3.10;;
51499;SDS011;39101;53.478;6.158;2022-12-29T14:13:10;15.43;;;3.50;;
51499;SDS011;39101;53.478;6.158;2022-12-29T14:15:42;17.50;;;3.23;;
51499;SDS011;39101;53.478;6.158;2022-12-29T14:20:39;16.97;;;3.10;;
51499;SDS011;39101;53.478;6.158;2022-12-29T14:23:24;18.63;;;3.10;;
51499;SDS011;39101;53.478;6.158;2022-12-29T14:28:43;15.50;;;2.90;;
51499;SDS011;39101;53.478;6.158;2022-12-29T14:34:15;9.53;;;1.97;;
51499;SDS011;39101;53.478;6.158;2022-12-29T14:36:36;14.80;;;2.93;;
51499;SDS011;39101;53.478;6.158;2022-12-29T14:44:50;18.90;;;2.90;;
51499;SDS011;39101;53.478;6.158;2022-12-29T14:49:56;16.07;;;3.23;;
51499;SDS011;39101;53.478;6.158;2022-12-29T14:52:54;16.80;;;2.90;;
51499;SDS011;39101;53.478;6.158;2022-12-29T15:00:42;26.20;;;4.40;;
51499;SDS011;39101;53.478;6.158;2022-12-29T15:03:14;21.03;;;2.73;;
51499;SDS011;39101;53.478;6.158;2022-12-29T15:05:48;18.03;;;2.60;;
51499;SDS011;39101;53.478;6.158;2022-12-29T15:08:18;17.48;;;3.10;;
51499;SDS011;39101;53.478;6.158;2022-12-29T15:17:08;11.87;;;2.10;;
51499;SDS011;39101;53.478;6.158;2022-12-29T15:19:46;18.30;;;3.83;;
51499;SDS011;39101;53.478;6.158;2022-12-29T15:22:11;26.77;;;5.27;;
51499;SDS011;39101;53.478;6.158;2022-12-29T15:24:40;19.07;;;3.03;;
51499;SDS011;39101;53.478;6.158;2022-12-29T15:27:10;23.58;;;4.07;;
51499;SDS011;39101;53.478;6.158;2022-12-29T15:29:40;22.37;;;4.17;;
51499;SDS011;39101;53.478;6.158;2022-12-29T15:32:15;21.00;;;3.63;;
51499;SDS011;39101;53.478;6.158;2022-12-29T15:34:43;18.70;;;2.77;;
51499;SDS011;39101;53.478;6.158;2022-12-29T15:37:24;22.37;;;3.77;;
51499;SDS011;39101;53.478;6.158;2022-12-29T15:39:53;17.60;;;3.60;;
51499;SDS011;39101;53.478;6.158;2022-12-29T15:43:06;19.47;;;3.23;;
51499;SDS011;39101;53.478;6.158;2022-12-29T15:45:11;19.27;;;3.50;;
51499;SDS011;39101;53.478;6.158;2022-12-29T15:47:38;13.90;;;2.53;;
51499;SDS011;39101;53.478;6.158;2022-12-29T15:50:09;24.10;;;3.77;;
51499;SDS011;39101;53.478;6.158;2022-12-29T15:52:45;18.40;;;2.97;;
51499;SDS011;39101;53.478;6.158;2022-12-29T15:55:21;17.17;;;3.27;;
51499;SDS011;39101;53.478;6.158;2022-12-29T15:58:19;19.97;;;3.87;;
51499;SDS011;39101;53.478;6.158;2022-12-29T16:00:52;18.77;;;4.10;;
51499;SDS011;39101;53.478;6.158;2022-12-29T16:03:22;15.70;;;2.57;;
51499;SDS011;39101;53.478;6.158;2022-12-29T16:05:55;20.57;;;2.70;;
51499;SDS011;39101;53.478;6.158;2022-12-29T16:11:03;20.00;;;3.33;;
51499;SDS011;39101;53.478;6.158;2022-12-29T16:13:49;15.03;;;2.80;;
51499;SDS011;39101;53.478;6.158;2022-12-29T16:16:21;16.27;;;3.43;;
51499;SDS011;39101;53.478;6.158;2022-12-29T16:19:01;19.27;;;3.57;;
51499;SDS011;39101;53.478;6.158;2022-12-29T16:21:36;14.97;;;2.90;;
51499;SDS011;39101;53.478;6.158;2022-12-29T16:24:04;13.73;;;3.77;;
51499;SDS011;39101;53.478;6.158;2022-12-29T16:26:32;18.07;;;3.13;;
51499;SDS011;39101;53.478;6.158;2022-12-29T16:29:01;21.80;;;4.13;;
51499;SDS011;39101;53.478;6.158;2022-12-29T16:31:49;21.43;;;4.00;;
51499;SDS011;39101;53.478;6.158;2022-12-29T16:34:42;18.00;;;2.63;;
51499;SDS011;39101;53.478;6.158;2022-12-29T16:39:49;20.43;;;3.60;;
51499;SDS011;39101;53.478;6.158;2022-12-29T16:50:11;20.13;;;4.17;;
51499;SDS011;39101;53.478;6.158;2022-12-29T16:52:40;14.23;;;2.40;;
51499;SDS011;39101;53.478;6.158;2022-12-29T16:55:14;16.20;;;3.43;;
51499;SDS011;39101;53.478;6.158;2022-12-29T16:57:42;18.50;;;3.10;;
51499;SDS011;39101;53.478;6.158;2022-12-29T17:00:21;16.10;;;3.20;;
51499;SDS011;39101;53.478;6.158;2022-12-29T17:02:49;20.85;;;3.17;;
51499;SDS011;39101;53.478;6.158;2022-12-29T17:05:18;18.00;;;2.60;;
51499;SDS011;39101;53.478;6.158;2022-12-29T17:07:44;19.13;;;2.53;;
51499;SDS011;39101;53.478;6.158;2022-12-29T17:10:11;14.70;;;3.10;;
51499;SDS011;39101;53.478;6.158;2022-12-29T17:12:38;20.10;;;3.57;;
51499;SDS011;39101;53.478;6.158;2022-12-29T17:17:34;19.87;;;3.53;;
51499;SDS011;39101;53.478;6.158;2022-12-29T17:22:47;13.80;;;3.53;;
51499;SDS011;39101;53.478;6.158;2022-12-29T17:25:16;22.70;;;3.30;;
51499;SDS011;39101;53.478;6.158;2022-12-29T17:27:46;19.03;;;3.33;;
51499;SDS011;39101;53.478;6.158;2022-12-29T17:30:23;20.60;;;3.23;;
51499;SDS011;39101;53.478;6.158;2022-12-29T17:33:06;22.47;;;4.40;;
51499;SDS011;39101;53.478;6.158;2022-12-29T17:35:35;14.17;;;3.70;;
51499;SDS011;39101;53.478;6.158;2022-12-29T17:38:01;15.53;;;3.53;;
51499;SDS011;39101;53.478;6.158;2022-12-29T17:40:27;19.57;;;3.23;;
51499;SDS011;39101;53.478;6.158;2022-12-29T17:42:55;20.03;;;3.70;;
51499;SDS011;39101;53.478;6.158;2022-12-29T17:45:27;18.77;;;3.13;;
51499;SDS011;39101;53.478;6.158;2022-12-29T17:47:54;19.17;;;3.20;;
51499;SDS011;39101;53.478;6.158;2022-12-29T17:50:22;20.20;;;4.17;;
51499;SDS011;39101;53.478;6.158;2022-12-29T17:52:53;14.13;;;3.87;;
51499;SDS011;39101;53.478;6.158;2022-12-29T17:55:24;20.37;;;3.83;;
51499;SDS011;39101;53.478;6.158;2022-12-29T17:57:50;15.07;;;3.10;;
51499;SDS011;39101;53.478;6.158;2022-12-29T18:00:17;12.87;;;3.00;;
51499;SDS011;39101;53.478;6.158;2022-12-29T18:02:48;14.87;;;3.00;;
51499;SDS011;39101;53.478;6.158;2022-12-29T18:05:18;15.53;;;3.20;;
51499;SDS011;39101;53.478;6.158;2022-12-29T18:07:45;22.40;;;4.50;;